Time;durP1;ratioP1;P1;durP2;ratioP2;P2;SDS_P1;SDS_P2;PMS_P1;PMS_P2;Temp;Humidity;BMP_temperature;BMP_pressure;BME280_temperature;BME280_humidity;BME280_pressure;Samples;Min_cycle;Max_cycle;Signal;HPM_P1;HPM_P2
2022/05/21 00:00:26;;;;;;;1.50;1.00;;;14.60;90.00;;;;;;4997224;28;21494;-80
2022/05/21 00:02:53;;;;;;;2.25;1.00;;;14.60;90.10;;;;;;5042960;28;20025;-80
2022/05/21 00:05:21;;;;;;;2.47;1.10;;;14.60;90.10;;;;;;4998467;28;20666;-79
2022/05/21 00:07:47;;;;;;;2.70;1.20;;;14.50;90.00;;;;;;5026247;28;20029;-81
2022/05/21 00:10:15;;;;;;;3.40;1.00;;;14.50;90.10;;;;;;5012848;28;20033;-80
2022/05/21 00:12:43;;;;;;;2.30;1.10;;;14.50;90.10;;;;;;5003855;28;20506;-80
2022/05/21 00:15:10;;;;;;;3.78;1.30;;;14.50;90.10;;;;;;5022064;28;20493;-80
2022/05/21 00:17:36;;;;;;;2.72;1.20;;;14.50;90.10;;;;;;5030006;28;20152;-79
2022/05/21 00:20:02;;;;;;;2.90;1.20;;;14.50;90.30;;;;;;4982067;28;20039;-82
2022/05/21 00:22:28;;;;;;;2.22;1.10;;;14.50;90.20;;;;;;5010882;28;20032;-81
2022/05/21 00:24:55;;;;;;;2.05;1.00;;;14.40;90.20;;;;;;5017377;28;20302;-81
2022/05/21 00:27:21;;;;;;;1.58;0.90;;;14.40;90.20;;;;;;5043806;28;20040;-80
2022/05/21 00:29:46;;;;;;;1.43;0.90;;;14.40;90.20;;;;;;5009619;28;20079;-80
2022/05/21 00:32:12;;;;;;;2.77;1.30;;;14.40;90.20;;;;;;5028290;28;20032;-81
2022/05/21 00:34:38;;;;;;;2.22;1.00;;;14.30;90.20;;;;;;5016924;28;20029;-81
2022/05/21 00:37:04;;;;;;;1.93;1.20;;;14.30;90.20;;;;;;5009944;28;20433;-80
2022/05/21 00:39:30;;;;;;;2.00;1.15;;;14.30;90.20;;;;;;5002491;28;20453;-81
2022/05/21 00:42:03;;;;;;;2.78;1.08;;;14.30;90.30;;;;;;5037677;28;20040;-80
2022/05/21 00:44:28;;;;;;;1.85;1.00;;;14.30;90.30;;;;;;4997541;28;20032;-80
2022/05/21 00:46:54;;;;;;;2.27;1.20;;;14.30;90.30;;;;;;5029580;28;20330;-80
2022/05/21 00:49:23;;;;;;;1.27;0.90;;;14.30;90.30;;;;;;5008299;28;20029;-80
2022/05/21 00:51:54;;;;;;;2.35;1.10;;;14.20;90.30;;;;;;5005576;28;20024;-79
2022/05/21 00:54:28;;;;;;;3.38;1.20;;;14.20;90.20;;;;;;5020017;28;20451;-80
2022/05/21 00:57:14;;;;;;;2.88;1.00;;;14.20;90.30;;;;;;5016258;28;20064;-80
2022/05/21 00:59:47;;;;;;;2.50;0.90;;;14.20;90.10;;;;;;4996474;28;20036;-78
2022/05/21 01:02:14;;;;;;;2.30;1.00;;;14.20;90.40;;;;;;5020019;28;20040;-78
2022/05/21 01:04:42;;;;;;;2.03;0.90;;;14.10;90.40;;;;;;4995184;28;20036;-80
2022/05/21 01:07:08;;;;;;;3.60;1.10;;;14.10;90.40;;;;;;5016133;28;20072;-81
2022/05/21 01:09:37;;;;;;;1.43;1.00;;;14.10;90.40;;;;;;5005006;28;20123;-79
2022/05/21 01:12:05;;;;;;;3.58;1.15;;;14.10;90.40;;;;;;5025781;28;20052;-80
2022/05/21 01:14:31;;;;;;;3.55;1.20;;;14.10;90.50;;;;;;5020961;28;20033;-80
2022/05/21 01:16:58;;;;;;;2.28;1.10;;;14.10;90.60;;;;;;4997458;28;20045;-79
2022/05/21 01:19:24;;;;;;;2.60;0.85;;;14.10;90.60;;;;;;5032172;28;20063;-81
2022/05/21 01:21:50;;;;;;;2.27;1.00;;;14.10;90.60;;;;;;4975551;28;20034;-79
2022/05/21 01:24:15;;;;;;;2.17;0.80;;;14.00;90.60;;;;;;5013036;28;20689;-79
2022/05/21 01:26:42;;;;;;;2.92;1.17;;;14.00;90.60;;;;;;5015815;28;20036;-79
2022/05/21 01:29:14;;;;;;;2.95;1.30;;;14.00;90.60;;;;;;5007847;28;20071;-80
2022/05/21 01:31:46;;;;;;;2.03;0.80;;;14.00;90.40;;;;;;5003084;28;20060;-79
2022/05/21 01:34:12;;;;;;;3.67;1.40;;;14.00;90.60;;;;;;5027046;28;20045;-80
2022/05/21 01:36:37;;;;;;;1.83;0.90;;;14.00;90.60;;;;;;4992577;28;20034;-79
2022/05/21 01:39:03;;;;;;;3.47;0.93;;;14.00;90.70;;;;;;5031489;28;20072;-84
2022/05/21 01:41:28;;;;;;;2.07;0.90;;;14.00;90.70;;;;;;5005950;28;21090;-82
2022/05/21 01:46:38;;;;;;;0.90;0.77;;;14.00;90.70;;;;;;5008099;28;20544;-79
2022/05/21 01:49:04;;;;;;;2.17;1.00;;;14.00;90.70;;;;;;5021724;28;20182;-78
2022/05/21 01:51:30;;;;;;;2.93;0.90;;;13.90;90.60;;;;;;5016332;28;20635;-80
2022/05/21 01:53:55;;;;;;;1.95;1.10;;;14.00;90.70;;;;;;5003482;28;20106;-80
2022/05/21 01:56:21;;;;;;;2.63;0.90;;;13.90;90.70;;;;;;4993593;28;20045;-79
2022/05/21 01:58:46;;;;;;;1.90;1.00;;;13.90;90.70;;;;;;5018749;28;20041;-80
2022/05/21 02:01:13;;;;;;;1.65;0.90;;;13.90;90.70;;;;;;4990322;28;20044;-79
2022/05/21 02:03:39;;;;;;;1.50;1.00;;;13.90;90.70;;;;;;5032405;28;20094;-79
2022/05/21 02:06:05;;;;;;;3.15;1.00;;;13.90;90.70;;;;;;5023367;28;20036;-79
2022/05/21 02:08:31;;;;;;;3.88;1.23;;;13.90;90.70;;;;;;5018250;28;20045;-82
2022/05/21 02:10:57;;;;;;;4.07;1.30;;;13.90;90.80;;;;;;5041297;28;20615;-80
2022/05/21 02:13:26;;;;;;;1.87;1.00;;;13.90;90.70;;;;;;5004772;28;20221;-81
2022/05/21 02:15:52;;;;;;;2.60;1.10;;;13.90;90.70;;;;;;5023090;28;20071;-83
2022/05/21 02:18:18;;;;;;;2.75;1.20;;;13.90;90.80;;;;;;5007392;28;20077;-82
2022/05/21 02:20:49;;;;;;;3.35;1.05;;;13.90;90.80;;;;;;5021971;28;20398;-79
2022/05/21 02:23:16;;;;;;;3.43;1.00;;;13.90;90.80;;;;;;5036318;28;20388;-82
2022/05/21 02:25:41;;;;;;;3.85;1.10;;;13.80;90.80;;;;;;4997986;28;20032;-82
2022/05/21 02:28:07;;;;;;;2.83;0.90;;;13.80;90.80;;;;;;5044258;28;20531;-81
2022/05/21 02:30:33;;;;;;;3.47;1.10;;;13.80;90.80;;;;;;5020118;28;20048;-78
2022/05/21 02:32:59;;;;;;;2.17;0.97;;;13.80;90.80;;;;;;5023698;28;20095;-80
2022/05/21 02:35:25;;;;;;;2.15;0.90;;;13.80;90.80;;;;;;5028406;28;20104;-78
2022/05/21 02:40:35;;;;;;;1.93;0.90;;;13.80;90.80;;;;;;5008124;28;20295;-78
2022/05/21 02:43:00;;;;;;;2.60;1.20;;;13.80;90.70;;;;;;5022640;28;20029;-79
2022/05/21 02:45:28;;;;;;;1.67;0.93;;;13.70;90.70;;;;;;5031552;28;20043;-78
2022/05/21 02:47:55;;;;;;;2.13;0.93;;;13.70;90.70;;;;;;5023474;28;20033;-78
2022/05/21 02:50:39;;;;;;;2.25;0.90;;;13.70;90.70;;;;;;5011247;28;20037;-78
2022/05/21 02:53:07;;;;;;;1.88;1.00;;;13.70;90.40;;;;;;5019130;28;20068;-77
2022/05/21 02:55:34;;;;;;;2.00;1.00;;;13.60;90.60;;;;;;5011577;28;20084;-79
2022/05/21 02:58:00;;;;;;;2.15;0.88;;;13.60;90.70;;;;;;5015818;28;20029;-79
2022/05/21 03:00:29;;;;;;;2.80;1.00;;;13.60;90.70;;;;;;5036808;28;20056;-78
2022/05/21 03:02:55;;;;;;;1.85;0.80;;;13.60;90.70;;;;;;5015146;28;20143;-79
2022/05/21 03:05:22;;;;;;;2.95;1.10;;;13.60;91.10;;;;;;5042551;28;20266;-78
2022/05/21 03:07:50;;;;;;;2.42;1.10;;;13.60;90.70;;;;;;5018577;28;20179;-78
2022/05/21 03:10:21;;;;;;;2.17;1.00;;;13.50;90.70;;;;;;5000595;28;20215;-81
2022/05/21 03:13:07;;;;;;;2.27;0.80;;;13.50;90.70;;;;;;5030520;28;20539;-79
2022/05/21 03:15:36;;;;;;;1.95;1.00;;;13.50;90.50;;;;;;5039101;28;20037;-79
2022/05/21 03:18:07;;;;;;;1.88;1.00;;;13.50;90.70;;;;;;5022576;28;20017;-78
2022/05/21 03:20:34;;;;;;;1.85;1.00;;;13.40;90.70;;;;;;5001519;28;20385;-80
2022/05/21 03:22:59;;;;;;;3.95;1.05;;;13.40;90.80;;;;;;5022586;28;20031;-80
2022/05/21 03:25:25;;;;;;;2.17;0.93;;;13.40;90.80;;;;;;5003900;28;20473;-78
2022/05/21 03:27:52;;;;;;;2.13;1.00;;;13.40;90.90;;;;;;5010504;28;20632;-78
2022/05/21 03:30:22;;;;;;;2.03;1.00;;;13.40;90.80;;;;;;5025079;28;20465;-80
2022/05/21 03:32:47;;;;;;;2.95;1.25;;;13.30;90.70;;;;;;5033576;28;20345;-80
2022/05/21 03:35:16;;;;;;;2.80;0.80;;;13.30;90.80;;;;;;5014777;28;20496;-79
2022/05/21 03:37:42;;;;;;;2.35;1.00;;;13.40;91.00;;;;;;5016634;28;20323;-78
2022/05/21 03:40:11;;;;;;;3.55;1.10;;;13.30;91.30;;;;;;5003434;28;20338;-78
2022/05/21 03:42:37;;;;;;;3.72;1.10;;;13.30;91.20;;;;;;5008200;28;20064;-82
2022/05/21 03:45:04;;;;;;;2.63;1.30;;;13.30;91.10;;;;;;5013558;28;20674;-80
2022/05/21 03:47:30;;;;;;;2.83;1.02;;;13.30;91.10;;;;;;5045856;28;20040;-81
2022/05/21 03:49:56;;;;;;;2.13;1.05;;;13.30;91.00;;;;;;5009423;28;20161;-81
2022/05/21 03:52:21;;;;;;;1.63;0.90;;;13.30;91.00;;;;;;4999719;28;20037;-81
2022/05/21 03:54:47;;;;;;;2.13;0.90;;;13.30;91.00;;;;;;5015343;28;20182;-80
2022/05/21 03:57:15;;;;;;;2.97;1.00;;;13.30;91.00;;;;;;4998054;28;20044;-81
2022/05/21 03:59:42;;;;;;;3.58;1.05;;;13.30;91.00;;;;;;5040809;28;20033;-81
2022/05/21 04:02:07;;;;;;;4.30;1.10;;;13.30;91.00;;;;;;5034460;28;20653;-82
2022/05/21 04:04:33;;;;;;;3.37;1.17;;;13.20;91.00;;;;;;5012973;28;20029;-82
2022/05/21 04:06:58;;;;;;;2.45;1.13;;;13.20;91.10;;;;;;5002203;28;20038;-81
2022/05/21 04:09:28;;;;;;;2.83;1.30;;;13.20;91.10;;;;;;5001176;28;20028;-81
2022/05/21 04:11:57;;;;;;;2.58;1.30;;;13.20;91.20;;;;;;5017025;28;20037;-81
2022/05/21 04:14:27;;;;;;;2.53;1.20;;;13.20;91.20;;;;;;5012979;28;20453;-81
2022/05/21 04:16:58;;;;;;;4.63;1.40;;;13.20;91.20;;;;;;5009088;28;20043;-82
2022/05/21 04:19:25;;;;;;;2.43;1.00;;;13.20;91.50;;;;;;5030612;28;20476;-82
2022/05/21 04:21:51;;;;;;;2.53;1.20;;;13.20;91.70;;;;;;5029036;28;20021;-82
2022/05/21 04:24:18;;;;;;;2.63;1.13;;;13.20;91.70;;;;;;5034325;28;20033;-82
2022/05/21 04:26:44;;;;;;;3.25;1.33;;;13.20;91.90;;;;;;4996508;28;20476;-81
2022/05/21 04:29:10;;;;;;;2.90;1.20;;;13.30;92.10;;;;;;5026602;28;20033;-81
2022/05/21 04:31:37;;;;;;;2.67;1.13;;;13.30;92.20;;;;;;5014619;28;20028;-82
2022/05/21 04:34:03;;;;;;;3.30;1.27;;;13.30;92.20;;;;;;4998231;28;21361;-81
2022/05/21 04:36:29;;;;;;;3.97;1.70;;;13.40;92.20;;;;;;5039158;28;20064;-81
2022/05/21 04:38:54;;;;;;;3.60;1.30;;;13.40;92.20;;;;;;5010919;28;20032;-82
2022/05/21 04:41:22;;;;;;;3.05;1.25;;;13.50;92.20;;;;;;5010285;28;20076;-82
2022/05/21 04:43:48;;;;;;;4.28;1.52;;;13.50;92.20;;;;;;5018250;28;20029;-82
2022/05/21 04:46:17;;;;;;;3.87;1.50;;;13.60;92.30;;;;;;5017062;28;20187;-81
2022/05/21 04:48:45;;;;;;;3.20;1.33;;;13.60;92.40;;;;;;5037509;28;20122;-81
2022/05/21 04:51:10;;;;;;;4.53;1.60;;;13.70;92.30;;;;;;5006617;28;20464;-79
2022/05/21 04:53:36;;;;;;;3.67;1.40;;;13.70;92.30;;;;;;5008577;28;20122;-78
2022/05/21 04:56:03;;;;;;;4.77;1.70;;;13.70;92.20;;;;;;5009603;28;20643;-79
2022/05/21 04:58:29;;;;;;;2.97;1.50;;;13.70;92.20;;;;;;4998086;28;20107;-79
2022/05/21 05:00:55;;;;;;;4.78;1.60;;;13.80;92.30;;;;;;5000674;28;20024;-79
2022/05/21 05:03:20;;;;;;;4.53;1.47;;;13.80;92.30;;;;;;5002350;28;20091;-79
2022/05/21 05:05:46;;;;;;;3.88;1.50;;;13.80;92.40;;;;;;4994080;28;20037;-79
2022/05/21 05:08:13;;;;;;;3.17;1.57;;;13.90;92.70;;;;;;5039708;28;20128;-79
2022/05/21 05:10:40;;;;;;;3.78;1.60;;;13.90;92.50;;;;;;5015244;28;20040;-83
2022/05/21 05:13:06;;;;;;;5.88;2.00;;;13.90;92.50;;;;;;5012231;28;20040;-82
2022/05/21 05:15:33;;;;;;;5.50;1.80;;;14.00;92.60;;;;;;5031257;28;20108;-81
2022/05/21 05:18:05;;;;;;;3.95;1.58;;;14.00;92.60;;;;;;4994682;28;20413;-80
2022/05/21 05:20:33;;;;;;;5.57;1.60;;;14.10;92.60;;;;;;5019865;28;20163;-80
2022/05/21 05:22:58;;;;;;;3.42;1.70;;;14.10;92.60;;;;;;4997325;28;20112;-81
2022/05/21 05:25:26;;;;;;;5.05;1.80;;;14.20;92.70;;;;;;5021056;28;20080;-79
2022/05/21 05:27:52;;;;;;;6.10;1.90;;;14.30;92.70;;;;;;5039942;28;20026;-78
2022/05/21 05:30:19;;;;;;;2.75;1.52;;;14.30;92.70;;;;;;4986431;28;20052;-79
2022/05/21 05:32:45;;;;;;;5.63;1.87;;;14.30;92.70;;;;;;5024116;28;20037;-80
2022/05/21 05:35:12;;;;;;;4.72;1.70;;;14.40;92.90;;;;;;4995397;28;20481;-79
2022/05/21 05:37:38;;;;;;;4.45;1.80;;;14.50;92.90;;;;;;5023574;28;20052;-78
2022/05/21 05:40:05;;;;;;;6.15;1.77;;;14.50;92.80;;;;;;5015401;28;20040;-79
2022/05/21 05:42:33;;;;;;;5.00;1.80;;;14.60;92.80;;;;;;5025059;28;20131;-80
2022/05/21 05:44:59;;;;;;;5.80;2.00;;;14.60;93.00;;;;;;5001459;28;20121;-79
2022/05/21 05:47:27;;;;;;;7.07;2.10;;;14.70;93.00;;;;;;5024934;28;20040;-79
2022/05/21 05:49:53;;;;;;;5.27;1.80;;;14.80;92.90;;;;;;5022585;28;20028;-78
2022/05/21 05:52:19;;;;;;;7.00;2.10;;;14.80;92.90;;;;;;4983274;28;20703;-79
2022/05/21 05:54:44;;;;;;;4.28;1.67;;;14.90;92.90;;;;;;5014210;28;20032;-78
2022/05/21 05:57:11;;;;;;;6.00;2.10;;;14.90;92.90;;;;;;5023820;28;20145;-78
2022/05/21 05:59:50;;;;;;;5.18;1.83;;;14.90;92.80;;;;;;4992397;28;20029;-78
2022/05/21 06:05:09;;;;;;;5.40;1.92;;;15.10;92.90;;;;;;5017239;28;20065;-82
2022/05/21 06:07:47;;;;;;;3.93;2.03;;;15.10;92.90;;;;;;5008790;28;20468;-80
2022/05/21 06:10:16;;;;;;;6.03;2.40;;;15.20;92.60;;;;;;5021018;28;20284;-80
2022/05/21 06:12:43;;;;;;;6.80;2.45;;;15.20;92.90;;;;;;5033291;28;20512;-79
2022/05/21 06:15:10;;;;;;;5.50;2.60;;;15.30;92.90;;;;;;4996919;28;20634;-80
2022/05/21 06:17:37;;;;;;;6.57;2.50;;;15.40;93.10;;;;;;5019817;28;20598;-79
2022/05/21 06:20:04;;;;;;;7.23;2.60;;;15.50;93.30;;;;;;5004529;28;20037;-80
2022/05/21 06:22:30;;;;;;;6.22;2.70;;;15.60;93.30;;;;;;5011756;28;20413;-81
2022/05/21 06:24:55;;;;;;;7.15;2.42;;;15.60;93.40;;;;;;5032534;28;20663;-81
2022/05/21 06:27:21;;;;;;;5.63;2.70;;;15.80;93.60;;;;;;5011378;28;20294;-80
2022/05/21 06:29:47;;;;;;;6.90;2.50;;;15.90;93.70;;;;;;5009872;28;20033;-79
2022/05/21 06:32:13;;;;;;;6.18;2.60;;;16.00;93.80;;;;;;5016319;28;20048;-79
2022/05/21 06:34:39;;;;;;;5.57;2.30;;;16.10;93.90;;;;;;5038529;28;20037;-79
2022/05/21 06:37:07;;;;;;;6.95;2.70;;;16.20;94.00;;;;;;5020456;28;20417;-80
2022/05/21 06:39:34;;;;;;;5.73;2.40;;;16.40;93.80;;;;;;5006428;28;20071;-80
2022/05/21 06:42:00;;;;;;;6.65;2.40;;;16.50;93.80;;;;;;5039704;28;20678;-81
2022/05/21 06:44:26;;;;;;;5.53;2.20;;;16.60;93.80;;;;;;5015713;28;20051;-81
2022/05/21 06:46:53;;;;;;;5.82;2.22;;;16.80;93.90;;;;;;5019429;28;20029;-81
2022/05/21 06:49:19;;;;;;;4.53;2.20;;;16.90;93.80;;;;;;5038885;28;20130;-81
2022/05/21 06:51:44;;;;;;;7.50;2.13;;;17.00;93.50;;;;;;5018859;28;20033;-79
2022/05/21 06:54:10;;;;;;;5.93;2.50;;;17.10;93.50;;;;;;5021232;28;20103;-79
2022/05/21 06:56:39;;;;;;;5.47;2.43;;;17.20;93.30;;;;;;5018038;28;20144;-82
2022/05/21 06:59:05;;;;;;;6.63;2.20;;;17.30;92.80;;;;;;5025822;28;20386;-83
2022/05/21 07:01:31;;;;;;;5.65;2.20;;;17.30;92.70;;;;;;5001438;28;20399;-79
2022/05/21 07:03:57;;;;;;;6.43;2.50;;;17.30;92.60;;;;;;5031735;28;20417;-82
2022/05/21 07:09:07;;;;;;;6.63;2.30;;;17.30;92.60;;;;;;5023606;28;20036;-79
2022/05/21 07:11:33;;;;;;;3.87;2.40;;;17.40;92.80;;;;;;5036586;28;20043;-80
2022/05/21 07:13:59;;;;;;;8.45;2.70;;;17.40;93.00;;;;;;5034958;28;20120;-80
2022/05/21 07:16:25;;;;;;;6.35;2.60;;;17.50;93.10;;;;;;4991212;28;20037;-81
2022/05/21 07:18:51;;;;;;;8.43;2.60;;;17.60;93.00;;;;;;5009810;28;20059;-81
2022/05/21 07:21:18;;;;;;;6.40;2.70;;;17.70;93.20;;;;;;5017590;28;20687;-81
2022/05/21 07:23:45;;;;;;;8.20;2.80;;;17.80;93.00;;;;;;5015864;28;20037;-81
2022/05/21 07:26:11;;;;;;;5.55;2.50;;;18.00;93.10;;;;;;5011477;28;20129;-81
2022/05/21 07:28:37;;;;;;;5.80;3.00;;;18.00;92.40;;;;;;5041939;28;20090;-80
2022/05/21 07:31:04;;;;;;;6.70;2.83;;;18.10;92.20;;;;;;5003263;28;20032;-79
2022/05/21 07:33:30;;;;;;;6.30;2.83;;;18.20;92.20;;;;;;5012474;28;20037;-80
2022/05/21 07:35:55;;;;;;;5.68;2.60;;;18.20;92.10;;;;;;5027138;28;20051;-81
2022/05/21 07:38:21;;;;;;;6.40;2.60;;;18.20;92.20;;;;;;5018825;28;21367;-81
2022/05/21 07:40:48;;;;;;;5.68;2.45;;;18.30;92.30;;;;;;4992505;28;20094;-79
2022/05/21 07:43:24;;;;;;;4.20;2.47;;;18.30;92.00;;;;;;5023769;28;20025;-80
2022/05/21 07:45:50;;;;;;;5.60;2.63;;;18.40;91.80;;;;;;5012331;28;20033;-82
2022/05/21 07:48:21;;;;;;;6.25;2.20;;;18.40;92.50;;;;;;5001976;28;20045;-80
2022/05/21 07:50:56;;;;;;;6.40;2.55;;;18.50;93.10;;;;;;5003632;28;20036;-81
2022/05/21 07:53:29;;;;;;;4.93;2.35;;;18.70;92.30;;;;;;5008394;28;20081;-80
2022/05/21 07:55:56;;;;;;;4.40;2.40;;;18.80;91.90;;;;;;4996402;28;20045;-78
2022/05/21 07:58:24;;;;;;;6.80;2.77;;;19.00;92.50;;;;;;5018634;28;20083;-80
2022/05/21 08:00:50;;;;;;;8.55;3.20;;;19.00;91.70;;;;;;5004822;28;20169;-81
2022/05/21 08:03:16;;;;;;;4.95;2.78;;;19.10;92.10;;;;;;5005838;28;20389;-81
2022/05/21 08:05:43;;;;;;;6.95;2.95;;;19.20;92.90;;;;;;4975317;28;20456;-80
2022/05/21 08:08:10;;;;;;;5.57;3.00;;;19.40;92.80;;;;;;5005599;28;20296;-80
2022/05/21 08:10:38;;;;;;;7.40;3.28;;;19.50;92.90;;;;;;5014042;28;20029;-80
2022/05/21 08:13:05;;;;;;;7.57;3.42;;;19.70;93.00;;;;;;5002561;28;20158;-80
2022/05/21 08:15:30;;;;;;;7.55;3.13;;;19.90;92.50;;;;;;5025515;28;20338;-81
2022/05/21 08:17:56;;;;;;;6.37;3.10;;;20.00;91.70;;;;;;5007554;28;20063;-83
2022/05/21 08:20:22;;;;;;;8.13;3.22;;;20.10;91.40;;;;;;5001153;28;20065;-80
2022/05/21 08:28:17;;;;;;;7.75;3.30;;;20.20;91.80;;;;;;5008711;28;20670;-80
2022/05/21 08:30:48;;;;;;;5.15;3.30;;;20.30;92.40;;;;;;5031498;28;20526;-80
2022/05/21 08:33:16;;;;;;;6.65;3.15;;;20.50;91.70;;;;;;5010369;28;20039;-81
2022/05/21 08:35:42;;;;;;;7.28;3.70;;;20.70;92.70;;;;;;4990098;28;20034;-79
2022/05/21 08:38:09;;;;;;;7.23;2.83;;;21.00;93.30;;;;;;5028624;28;20678;-81
2022/05/21 08:40:37;;;;;;;5.50;2.92;;;21.30;93.30;;;;;;5006113;28;20477;-81
2022/05/21 08:43:05;;;;;;;4.28;2.75;;;21.60;92.80;;;;;;4992469;28;20130;-82
2022/05/21 08:45:55;;;;;;;5.50;2.30;;;21.80;91.50;;;;;;5006124;28;20114;-80
2022/05/21 08:48:20;;;;;;;5.22;2.30;;;21.90;83.50;;;;;;4986907;28;20038;-81
2022/05/21 08:50:52;;;;;;;5.97;2.30;;;21.90;88.20;;;;;;4984386;28;20064;-81
2022/05/21 08:53:20;;;;;;;6.63;2.20;;;21.80;86.60;;;;;;5033277;28;20115;-79
2022/05/21 08:55:50;;;;;;;6.03;2.25;;;21.70;88.10;;;;;;5010217;28;20132;-82
2022/05/21 08:58:20;;;;;;;6.70;2.38;;;21.60;90.20;;;;;;4997412;28;20044;-81
2022/05/21 09:00:48;;;;;;;6.90;2.30;;;21.60;91.10;;;;;;5030592;28;20069;-80
2022/05/21 09:03:21;;;;;;;5.60;2.40;;;21.80;91.10;;;;;;5004991;28;20052;-82
2022/05/21 09:05:58;;;;;;;4.32;2.00;;;22.00;90.90;;;;;;4978210;28;20246;-83
2022/05/21 09:08:53;;;;;;;5.75;2.28;;;22.30;92.10;;;;;;5035029;28;20131;-80
2022/05/21 09:11:28;;;;;;;5.15;1.90;;;22.60;88.80;;;;;;4980524;28;20080;-80
2022/05/21 09:14:21;;;;;;;4.57;1.80;;;22.90;90.30;;;;;;4999977;28;20028;-81
2022/05/21 09:16:56;;;;;;;5.45;2.05;;;23.10;85.60;;;;;;5015376;28;20076;-83
2022/05/21 09:19:28;;;;;;;4.65;1.80;;;23.10;90.60;;;;;;4994228;28;20021;-80
2022/05/21 09:22:01;;;;;;;4.55;1.80;;;23.30;89.40;;;;;;5003382;28;21262;-80
2022/05/21 09:24:46;;;;;;;6.00;2.05;;;23.50;89.10;;;;;;5012691;28;20029;-80
2022/05/21 09:27:29;;;;;;;3.63;1.90;;;23.60;85.00;;;;;;5032703;28;20322;-81
2022/05/21 09:30:15;;;;;;;4.95;2.03;;;23.50;83.30;;;;;;4997069;28;20033;-81
2022/05/21 09:32:45;;;;;;;4.43;1.88;;;23.50;85.00;;;;;;4999257;28;20029;-80
2022/05/21 09:35:19;;;;;;;5.68;1.92;;;23.70;91.00;;;;;;4995463;28;20045;-80
2022/05/21 09:37:45;;;;;;;4.40;1.65;;;23.90;88.00;;;;;;5013511;28;20406;-80
2022/05/21 09:40:30;;;;;;;6.33;2.23;;;24.00;90.00;;;;;;5025328;28;20044;-82
2022/05/21 09:45:41;;;;;;;4.28;1.60;;;24.30;90.40;;;;;;5014565;28;20263;-80
2022/05/21 09:48:06;;;;;;;5.37;1.70;;;24.40;88.90;;;;;;5044746;28;20029;-82
2022/05/21 09:50:51;;;;;;;5.82;2.03;;;24.40;88.70;;;;;;5008608;28;20633;-80
2022/05/21 09:53:25;;;;;;;4.07;1.77;;;24.50;84.60;;;;;;5005662;28;20292;-80
2022/05/21 09:56:08;;;;;;;4.60;1.63;;;24.80;90.80;;;;;;5040106;28;20045;-81
2022/05/21 09:58:39;;;;;;;4.32;1.90;;;25.10;89.60;;;;;;4999930;28;20569;-80
2022/05/21 10:01:08;;;;;;;5.57;1.90;;;25.40;88.30;;;;;;5027186;28;20060;-81
2022/05/21 10:03:49;;;;;;;4.68;1.80;;;25.60;88.30;;;;;;5014575;28;20611;-83
2022/05/21 10:06:20;;;;;;;6.50;2.33;;;25.70;82.40;;;;;;4992658;28;20563;-80
2022/05/21 10:11:55;;;;;;;4.03;1.67;;;25.90;84.40;;;;;;5040499;28;20380;-80
2022/05/21 10:14:30;;;;;;;4.28;1.80;;;26.20;80.60;;;;;;5037042;28;20322;-81
2022/05/21 10:17:01;;;;;;;5.95;1.90;;;26.20;81.60;;;;;;5013392;28;20940;-81
2022/05/21 10:19:57;;;;;;;4.88;1.77;;;26.30;83.80;;;;;;5019845;28;20120;-82
2022/05/21 10:22:44;;;;;;;3.80;1.57;;;26.50;82.20;;;;;;4988610;28;20025;-82
2022/05/21 10:25:39;;;;;;;3.90;1.52;;;26.80;86.40;;;;;;4995123;28;20037;-81
2022/05/21 10:28:26;;;;;;;5.47;1.70;;;27.10;81.30;;;;;;5024930;28;20109;-81
2022/05/21 10:31:08;;;;;;;3.58;1.60;;;27.50;84.90;;;;;;5015241;28;20124;-82
2022/05/21 10:34:12;;;;;;;3.20;1.35;;;27.70;82.50;;;;;;5023515;28;20231;-81
2022/05/21 10:37:07;;;;;;;3.67;1.43;;;27.80;77.40;;;;;;5007218;28;20128;-80
2022/05/21 10:39:52;;;;;;;3.50;1.40;;;27.90;75.90;;;;;;4995997;28;20150;-80
2022/05/21 10:42:30;;;;;;;4.38;1.77;;;27.90;82.70;;;;;;5008242;28;20501;-79
2022/05/21 10:44:55;;;;;;;3.35;1.45;;;27.90;78.80;;;;;;5030348;28;20029;-80
2022/05/21 10:48:12;;;;;;;4.27;1.90;;;27.90;84.10;;;;;;5003324;28;20040;-82
2022/05/21 10:50:56;;;;;;;3.53;1.88;;;28.10;76.70;;;;;;4985986;28;20041;-80
2022/05/21 10:53:43;;;;;;;5.05;2.13;;;28.30;82.50;;;;;;4989096;28;20091;-81
2022/05/21 10:56:12;;;;;;;3.05;1.70;;;28.50;76.90;;;;;;5031299;28;20072;-82
2022/05/21 10:58:49;;;;;;;3.53;1.80;;;28.70;81.30;;;;;;5018595;28;20029;-80
2022/05/21 11:01:29;;;;;;;3.50;1.65;;;28.90;84.80;;;;;;4995335;28;20830;-80
2022/05/21 11:04:31;;;;;;;3.65;1.80;;;29.10;77.40;;;;;;5001395;28;20055;-81
2022/05/21 11:07:18;;;;;;;3.33;1.75;;;29.40;72.60;;;;;;5008900;28;20527;-83
2022/05/21 11:10:12;;;;;;;4.40;1.70;;;29.70;75.70;;;;;;4986348;28;20155;-80
2022/05/21 11:12:54;;;;;;;4.43;1.80;;;29.90;74.10;;;;;;5037798;28;20559;-80
2022/05/21 11:15:43;;;;;;;3.45;1.80;;;30.20;77.00;;;;;;5024875;28;20040;-81
2022/05/21 11:18:43;;;;;;;3.00;1.35;;;30.40;72.40;;;;;;5014313;28;20056;-78
2022/05/21 11:21:23;;;;;;;2.95;1.30;;;30.60;73.80;;;;;;5028300;28;20053;-82
2022/05/21 11:24:21;;;;;;;3.97;1.80;;;30.50;73.80;;;;;;5010184;28;20091;-81
2022/05/21 11:27:14;;;;;;;3.53;1.60;;;30.50;71.40;;;;;;5013479;28;20658;-84
2022/05/21 11:29:47;;;;;;;3.60;1.80;;;30.50;71.10;;;;;;5006192;28;20030;-83
2022/05/21 11:38:34;;;;;;;3.78;1.83;;;30.00;72.40;;;;;;5029327;28;20049;-80
2022/05/21 11:47:07;;;;;;;3.80;2.08;;;30.10;70.00;;;;;;5039302;28;20512;-80
2022/05/21 11:50:07;;;;;;;4.20;1.90;;;30.10;77.80;;;;;;4991167;28;20090;-81
2022/05/21 11:52:35;;;;;;;3.65;1.65;;;29.90;72.60;;;;;;5029942;28;20036;-84
2022/05/21 11:55:10;;;;;;;3.33;1.80;;;29.80;76.90;;;;;;5016619;28;20128;-82
2022/05/21 11:57:46;;;;;;;3.35;1.50;;;29.80;71.30;;;;;;5006437;28;20058;-80
2022/05/21 12:00:17;;;;;;;3.60;1.40;;;29.90;72.70;;;;;;5019088;28;20026;-81
2022/05/21 12:02:58;;;;;;;3.70;1.70;;;29.90;73.30;;;;;;5017335;28;20267;-80
2022/05/21 12:05:41;;;;;;;4.97;2.13;;;29.80;68.90;;;;;;5008881;28;20033;-79
2022/05/21 12:08:13;;;;;;;2.83;1.40;;;29.70;68.30;;;;;;5024274;28;20246;-84
2022/05/21 12:11:11;;;;;;;3.25;1.50;;;29.50;74.00;;;;;;5009832;28;20041;-82
2022/05/21 12:13:39;;;;;;;4.75;1.70;;;29.40;67.60;;;;;;4998336;28;20501;-82
2022/05/21 12:16:16;;;;;;;6.00;1.65;;;29.60;78.00;;;;;;5012960;28;20053;-79
2022/05/21 12:18:55;;;;;;;2.93;1.40;;;29.70;71.00;;;;;;5006628;28;21843;-82
2022/05/21 12:21:27;;;;;;;2.47;1.40;;;29.80;69.20;;;;;;5000239;28;20352;-83
2022/05/21 12:23:58;;;;;;;4.35;1.55;;;29.80;70.30;;;;;;4992431;28;20080;-80
2022/05/21 12:26:47;;;;;;;3.83;1.80;;;29.80;71.00;;;;;;5018319;28;20472;-80
2022/05/21 12:29:13;;;;;;;3.85;1.60;;;29.70;70.50;;;;;;5017183;28;20763;-80
2022/05/21 12:32:09;;;;;;;3.53;1.50;;;29.80;74.30;;;;;;5013061;28;20040;-81
2022/05/21 12:35:13;;;;;;;3.15;1.30;;;29.80;75.00;;;;;;4986889;28;20045;-80
2022/05/21 12:37:48;;;;;;;3.03;1.30;;;30.00;66.50;;;;;;5013585;28;20063;-80
2022/05/21 12:40:29;;;;;;;2.60;1.30;;;29.90;72.80;;;;;;5011163;28;23050;-80
2022/05/21 12:43:13;;;;;;;3.63;1.63;;;29.90;66.20;;;;;;5007188;28;20111;-81
2022/05/21 12:45:44;;;;;;;2.50;1.40;;;29.70;65.20;;;;;;5040668;28;20315;-81
2022/05/21 12:48:22;;;;;;;2.25;1.40;;;29.60;71.10;;;;;;5019983;28;20280;-80
2022/05/21 12:50:49;;;;;;;2.22;1.17;;;29.50;66.40;;;;;;5033564;28;20029;-79
2022/05/21 12:53:27;;;;;;;3.23;1.30;;;29.50;72.00;;;;;;5015998;28;20099;-80
2022/05/21 12:56:25;;;;;;;3.47;1.45;;;29.40;66.60;;;;;;5028482;28;20049;-82
2022/05/21 12:59:16;;;;;;;3.42;1.40;;;29.40;67.20;;;;;;4971795;28;20063;-80
2022/05/21 13:01:56;;;;;;;4.85;1.30;;;29.50;65.00;;;;;;5031512;28;20037;-82
2022/05/21 13:04:34;;;;;;;2.25;1.25;;;29.50;68.10;;;;;;5018967;28;20607;-81
2022/05/21 13:07:04;;;;;;;4.23;1.40;;;29.60;70.80;;;;;;5005557;28;20571;-80
2022/05/21 13:09:36;;;;;;;3.47;1.23;;;29.80;71.10;;;;;;5031230;28;20040;-81
2022/05/21 13:12:03;;;;;;;2.90;1.17;;;29.90;70.10;;;;;;5002818;28;20034;-81
2022/05/21 13:14:36;;;;;;;2.95;1.33;;;30.00;73.00;;;;;;5037747;28;20064;-79
2022/05/21 13:17:02;;;;;;;2.80;1.30;;;30.00;68.30;;;;;;5023791;28;20041;-80
2022/05/21 13:19:34;;;;;;;2.80;1.13;;;30.00;71.30;;;;;;5013026;28;20077;-81
2022/05/21 13:22:28;;;;;;;2.58;1.17;;;30.00;67.70;;;;;;5003544;28;20549;-80
2022/05/21 13:25:05;;;;;;;1.98;1.00;;;29.90;66.50;;;;;;5008431;28;20057;-81
2022/05/21 13:27:56;;;;;;;2.92;1.23;;;29.90;65.10;;;;;;5042862;28;20103;-80
2022/05/21 13:30:35;;;;;;;2.80;1.10;;;29.90;64.40;;;;;;5033853;28;20409;-81
2022/05/21 13:33:03;;;;;;;2.60;1.10;;;30.00;65.70;;;;;;5015537;28;20040;-81
2022/05/21 13:35:35;;;;;;;2.50;1.20;;;30.10;71.50;;;;;;4998098;28;20041;-80
2022/05/21 13:38:03;;;;;;;2.22;1.20;;;30.20;72.20;;;;;;5002275;28;20064;-80
2022/05/21 13:40:42;;;;;;;2.65;1.00;;;30.30;69.80;;;;;;5016323;28;20037;-80
2022/05/21 13:43:11;;;;;;;3.50;1.10;;;30.30;65.70;;;;;;5007350;28;20033;-80